Time;durP1;ratioP1;P1;durP2;ratioP2;P2;SDS_P1;SDS_P2;PMS_P1;PMS_P2;Temp;Humidity;BMP_temperature;BMP_pressure;BME280_temperature;BME280_humidity;BME280_pressure;Samples;Min_cycle;Max_cycle;Signal;HPM_P1;HPM_P2
2023/08/16 00:00:59;;;;;;;;;;;15.50;99.90;;;;;;5001944;28;19979;-44
2023/08/16 00:03:26;;;;;;;;;;;15.40;99.90;;;;;;5012652;28;19925;-43
2023/08/16 00:05:53;;;;;;;;;;;15.40;99.90;;;;;;5012914;28;20238;-42
2023/08/16 00:08:20;;;;;;;;;;;15.40;99.90;;;;;;5010151;28;20429;-44
2023/08/16 00:10:46;;;;;;;;;;;15.40;99.90;;;;;;5001878;28;20003;-43
2023/08/16 00:13:13;;;;;;;;;;;15.40;99.90;;;;;;5012505;28;19925;-43
2023/08/16 00:15:40;;;;;;;;;;;15.40;99.90;;;;;;5011418;28;20332;-43
2023/08/16 00:18:08;;;;;;;;;;;15.40;99.90;;;;;;5004825;28;19932;-44
2023/08/16 00:20:34;;;;;;;;;;;15.40;99.90;;;;;;4999495;28;19925;-43
2023/08/16 00:23:01;;;;;;;;;;;15.40;99.90;;;;;;5028814;28;19931;-44
2023/08/16 00:25:28;;;;;;;;;;;15.40;99.90;;;;;;5020932;28;19952;-43
2023/08/16 00:27:58;;;;;;;;;;;15.40;99.90;;;;;;5014557;28;19982;-43
2023/08/16 00:30:24;;;;;;;;;;;15.30;99.90;;;;;;5012052;28;19929;-44
2023/08/16 00:32:51;;;;;;;;;;;15.30;99.90;;;;;;4995298;28;20344;-44
2023/08/16 00:35:19;;;;;;;;;;;15.30;99.90;;;;;;5013209;28;20389;-43
2023/08/16 00:37:45;;;;;;;;;;;15.20;99.90;;;;;;4995376;28;19933;-43
2023/08/16 00:40:12;;;;;;;;;;;15.20;99.90;;;;;;5018779;28;19925;-43
2023/08/16 00:42:38;;;;;;;;;;;15.20;99.90;;;;;;5031810;28;19925;-44
2023/08/16 00:45:06;;;;;;;;;;;15.20;99.90;;;;;;5016858;28;19959;-43
2023/08/16 00:47:32;;;;;;;;;;;15.20;99.90;;;;;;5034930;28;19929;-44
2023/08/16 00:49:59;;;;;;;;;;;15.10;99.90;;;;;;5024991;28;20001;-42
2023/08/16 00:52:27;;;;;;;;;;;15.10;99.90;;;;;;5016471;28;19975;-44
2023/08/16 00:54:54;;;;;;;;;;;15.00;99.90;;;;;;5016204;28;19975;-43
2023/08/16 00:57:20;;;;;;;;;;;15.00;99.90;;;;;;5015709;28;19980;-43
2023/08/16 00:59:47;;;;;;;;;;;14.90;99.90;;;;;;5023614;28;19926;-42
2023/08/16 01:02:14;;;;;;;;;;;15.00;99.90;;;;;;5004849;28;19949;-44
2023/08/16 01:04:41;;;;;;;;;;;14.90;99.90;;;;;;4998206;28;20367;-44
2023/08/16 01:07:07;;;;;;;;;;;14.90;99.90;;;;;;4996225;28;19933;-43
2023/08/16 01:09:35;;;;;;;;;;;14.90;99.90;;;;;;4999330;28;19930;-44
2023/08/16 01:12:05;;;;;;;;;;;14.90;99.90;;;;;;4988545;28;19925;-44
2023/08/16 01:14:33;;;;;;;;;;;14.90;99.90;;;;;;5000878;28;20393;-43
2023/08/16 01:16:59;;;;;;;;;;;14.80;99.90;;;;;;5003288;28;19929;-44
2023/08/16 01:19:28;;;;;;;;;;;14.80;99.90;;;;;;5012734;28;20379;-43
2023/08/16 01:21:55;;;;;;;;;;;14.80;99.90;;;;;;5020044;28;19926;-42
2023/08/16 01:24:23;;;;;;;;;;;14.80;99.90;;;;;;5014932;28;19926;-44
2023/08/16 01:26:52;;;;;;;;;;;14.80;99.90;;;;;;5014512;28;19926;-44
2023/08/16 01:29:19;;;;;;;;;;;14.80;99.90;;;;;;4994418;28;19929;-43
2023/08/16 01:31:46;;;;;;;;;;;14.70;99.90;;;;;;5000045;28;19929;-43
2023/08/16 01:34:12;;;;;;;;;;;14.70;99.90;;;;;;4980308;28;19972;-43
2023/08/16 01:36:39;;;;;;;;;;;14.70;99.90;;;;;;4988237;28;19972;-44
2023/08/16 01:39:06;;;;;;;;;;;14.70;99.90;;;;;;5012126;28;19987;-44
2023/08/16 01:41:39;;;;;;;;;;;14.70;99.90;;;;;;4995376;28;19925;-43
2023/08/16 01:44:07;;;;;;;;;;;14.60;99.90;;;;;;5013084;28;19932;-43
2023/08/16 01:46:34;;;;;;;;;;;14.60;99.90;;;;;;4989881;28;19925;-44
2023/08/16 01:49:00;;;;;;;;;;;14.60;99.90;;;;;;4990264;28;19972;-43
2023/08/16 01:51:27;;;;;;;;;;;14.60;99.90;;;;;;4993374;28;19929;-44
2023/08/16 01:53:54;;;;;;;;;;;14.50;99.90;;;;;;4995396;28;19926;-43
2023/08/16 01:56:20;;;;;;;;;;;14.50;99.90;;;;;;4998968;28;19933;-44
2023/08/16 01:58:47;;;;;;;;;;;14.50;99.90;;;;;;4997301;28;19956;-43
2023/08/16 02:01:15;;;;;;;;;;;14.50;99.90;;;;;;5014889;28;20334;-43
2023/08/16 02:03:42;;;;;;;;;;;14.50;99.90;;;;;;5014548;28;20431;-43
2023/08/16 02:06:09;;;;;;;;;;;14.40;99.90;;;;;;5024119;28;19926;-43
2023/08/16 02:08:35;;;;;;;;;;;14.40;99.90;;;;;;5029616;28;19932;-43
2023/08/16 02:11:02;;;;;;;;;;;14.40;99.90;;;;;;5019208;28;19925;-43
2023/08/16 02:13:29;;;;;;;;;;;14.30;99.90;;;;;;5011280;28;19925;-44
2023/08/16 02:15:59;;;;;;;;;;;14.20;99.90;;;;;;5015047;28;19925;-44
2023/08/16 02:18:27;;;;;;;;;;;14.20;99.90;;;;;;5020344;28;19975;-43
2023/08/16 02:20:54;;;;;;;;;;;14.10;99.90;;;;;;5021411;28;19932;-43
2023/08/16 02:23:20;;;;;;;;;;;14.10;99.90;;;;;;4996704;28;19925;-43
2023/08/16 02:25:47;;;;;;;;;;;14.10;99.90;;;;;;5013681;28;19963;-43
2023/08/16 02:28:13;;;;;;;;;;;14.10;99.90;;;;;;4996533;28;19979;-43
2023/08/16 02:30:40;;;;;;;;;;;14.00;99.90;;;;;;5024440;28;19947;-43
2023/08/16 02:33:07;;;;;;;;;;;14.00;99.90;;;;;;5020896;28;19984;-43
2023/08/16 02:35:35;;;;;;;;;;;14.00;99.90;;;;;;5014111;28;19992;-44
2023/08/16 02:38:01;;;;;;;;;;;14.00;99.90;;;;;;4996400;28;19929;-43
2023/08/16 02:40:28;;;;;;;;;;;14.00;99.90;;;;;;4996696;28;19983;-43
2023/08/16 02:42:55;;;;;;;;;;;13.90;99.90;;;;;;5017795;28;19929;-43
2023/08/16 02:45:21;;;;;;;;;;;13.90;99.90;;;;;;5033686;28;19925;-43
2023/08/16 02:47:48;;;;;;;;;;;13.90;99.90;;;;;;5014235;28;19925;-43
2023/08/16 02:50:15;;;;;;;;;;;13.90;99.90;;;;;;5031237;28;19925;-42
2023/08/16 02:52:43;;;;;;;;;;;13.90;99.90;;;;;;5033288;28;19932;-44
2023/08/16 02:55:10;;;;;;;;;;;13.90;99.90;;;;;;5032610;28;20297;-43
2023/08/16 02:57:36;;;;;;;;;;;13.90;99.90;;;;;;5015660;28;20431;-44
2023/08/16 03:00:06;;;;;;;;;;;13.90;99.90;;;;;;5021146;28;19980;-44
2023/08/16 03:02:34;;;;;;;;;;;13.90;99.90;;;;;;5013891;28;19971;-43
2023/08/16 03:05:01;;;;;;;;;;;13.90;99.90;;;;;;5032429;28;19925;-43
2023/08/16 03:07:27;;;;;;;;;;;13.90;99.90;;;;;;5014014;28;19932;-43
2023/08/16 03:09:55;;;;;;;;;;;13.90;99.90;;;;;;5015231;28;19925;-44
2023/08/16 03:12:22;;;;;;;;;;;13.80;99.90;;;;;;5018016;28;19967;-43
2023/08/16 03:14:48;;;;;;;;;;;13.80;99.90;;;;;;5018999;28;19971;-44
2023/08/16 03:17:15;;;;;;;;;;;13.80;99.90;;;;;;5015254;28;19995;-43
2023/08/16 03:19:42;;;;;;;;;;;13.80;99.90;;;;;;5011632;28;19925;-43
2023/08/16 03:22:08;;;;;;;;;;;13.80;99.90;;;;;;5013551;28;19968;-43
2023/08/16 03:24:35;;;;;;;;;;;13.70;99.90;;;;;;5013371;28;19964;-43
2023/08/16 03:27:03;;;;;;;;;;;13.80;99.90;;;;;;4995654;28;19967;-43
2023/08/16 03:29:30;;;;;;;;;;;13.80;99.90;;;;;;4996241;28;19985;-43
2023/08/16 03:31:57;;;;;;;;;;;13.70;99.90;;;;;;5023108;28;19936;-43
2023/08/16 03:34:24;;;;;;;;;;;13.80;99.90;;;;;;5022869;28;19926;-43
2023/08/16 03:36:50;;;;;;;;;;;13.80;99.90;;;;;;5016671;28;19969;-43
2023/08/16 03:39:17;;;;;;;;;;;13.70;99.90;;;;;;5028207;28;19983;-43
2023/08/16 03:41:44;;;;;;;;;;;13.70;99.90;;;;;;5010000;28;19930;-44
2023/08/16 03:44:12;;;;;;;;;;;13.70;99.90;;;;;;5011777;28;19925;-44
2023/08/16 03:46:39;;;;;;;;;;;13.70;99.90;;;;;;4992541;28;19967;-44
2023/08/16 03:49:05;;;;;;;;;;;13.70;99.90;;;;;;5011588;28;19926;-43
2023/08/16 03:51:32;;;;;;;;;;;13.70;99.90;;;;;;5014153;28;20345;-43
2023/08/16 03:53:59;;;;;;;;;;;13.70;99.90;;;;;;5010193;28;19925;-43
2023/08/16 03:56:25;;;;;;;;;;;13.70;99.90;;;;;;5013799;28;19925;-43
2023/08/16 03:58:52;;;;;;;;;;;13.70;99.90;;;;;;5027235;28;19925;-42
2023/08/16 04:01:22;;;;;;;;;;;13.70;99.90;;;;;;5009514;28;19926;-44
2023/08/16 04:03:49;;;;;;;;;;;13.70;99.90;;;;;;5008767;28;20016;-43
2023/08/16 04:06:19;;;;;;;;;;;13.70;99.90;;;;;;5006667;28;19980;-43
2023/08/16 04:08:46;;;;;;;;;;;13.70;99.90;;;;;;5011702;28;19933;-43
2023/08/16 04:11:12;;;;;;;;;;;13.70;99.90;;;;;;5012219;28;19933;-43
2023/08/16 04:13:39;;;;;;;;;;;13.70;99.90;;;;;;5010590;28;19960;-43
2023/08/16 04:16:06;;;;;;;;;;;13.70;99.90;;;;;;5011721;28;19969;-44
2023/08/16 04:18:34;;;;;;;;;;;13.70;99.90;;;;;;4996182;28;19933;-44
2023/08/16 04:21:01;;;;;;;;;;;13.70;99.90;;;;;;4997145;28;19929;-44
2023/08/16 04:23:27;;;;;;;;;;;13.70;99.90;;;;;;5003910;28;19936;-43
2023/08/16 04:25:54;;;;;;;;;;;13.70;99.90;;;;;;5015667;28;20406;-43
2023/08/16 04:28:21;;;;;;;;;;;13.60;99.90;;;;;;5015597;28;19925;-43
2023/08/16 04:30:47;;;;;;;;;;;13.60;99.90;;;;;;5011356;28;19936;-43
2023/08/16 04:33:14;;;;;;;;;;;13.60;99.90;;;;;;5015214;28;19959;-43
2023/08/16 04:35:42;;;;;;;;;;;13.60;99.90;;;;;;4998020;28;19933;-43
2023/08/16 04:38:09;;;;;;;;;;;13.60;99.90;;;;;;4997449;28;19926;-44
2023/08/16 04:40:36;;;;;;;;;;;13.60;99.90;;;;;;5006651;28;19955;-44
2023/08/16 04:43:03;;;;;;;;;;;13.60;99.90;;;;;;4997284;28;19997;-43
2023/08/16 04:45:30;;;;;;;;;;;13.60;99.90;;;;;;5015142;28;20011;-44
2023/08/16 04:47:56;;;;;;;;;;;13.70;99.90;;;;;;4997146;28;19960;-43
2023/08/16 04:50:23;;;;;;;;;;;13.60;99.90;;;;;;4998312;28;20019;-43
2023/08/16 04:52:51;;;;;;;;;;;13.60;99.90;;;;;;5015084;28;19925;-43
2023/08/16 04:55:18;;;;;;;;;;;13.60;99.90;;;;;;5015930;28;19926;-43
2023/08/16 04:57:45;;;;;;;;;;;13.60;99.90;;;;;;5014928;28;20411;-43
2023/08/16 05:00:12;;;;;;;;;;;13.60;99.90;;;;;;5030528;28;19932;-43
2023/08/16 05:02:39;;;;;;;;;;;13.60;99.90;;;;;;4982772;28;19930;-43
2023/08/16 05:05:06;;;;;;;;;;;13.60;99.90;;;;;;4998366;28;19964;-43
2023/08/16 05:07:32;;;;;;;;;;;13.60;99.90;;;;;;4996314;28;19977;-43
2023/08/16 05:10:01;;;;;;;;;;;13.60;99.90;;;;;;5002072;28;20013;-43
2023/08/16 05:12:27;;;;;;;;;;;13.60;99.90;;;;;;5000868;28;19935;-44
2023/08/16 05:14:54;;;;;;;;;;;13.60;99.90;;;;;;5012494;28;20075;-42
2023/08/16 05:17:21;;;;;;;;;;;13.60;99.90;;;;;;4994209;28;20411;-44
2023/08/16 05:19:47;;;;;;;;;;;13.60;99.90;;;;;;4992718;28;19925;-43
2023/08/16 05:22:14;;;;;;;;;;;13.60;99.90;;;;;;5005747;28;20329;-43
2023/08/16 05:24:41;;;;;;;;;;;13.70;99.90;;;;;;4995076;28;19926;-44
2023/08/16 05:27:12;;;;;;;;;;;13.70;99.90;;;;;;4982915;28;19959;-43
2023/08/16 05:29:39;;;;;;;;;;;13.70;99.90;;;;;;5003647;28;19980;-44
2023/08/16 05:32:05;;;;;;;;;;;13.70;99.90;;;;;;4977381;28;19967;-43
2023/08/16 05:34:32;;;;;;;;;;;13.80;99.90;;;;;;4978340;28;19926;-44
2023/08/16 05:36:59;;;;;;;;;;;13.80;99.90;;;;;;5000366;28;19936;-43
2023/08/16 05:39:25;;;;;;;;;;;13.80;99.90;;;;;;4997433;28;19925;-43
2023/08/16 05:41:52;;;;;;;;;;;13.90;99.90;;;;;;5002332;28;20016;-43
2023/08/16 05:44:20;;;;;;;;;;;13.90;99.90;;;;;;4987298;28;19933;-43
2023/08/16 05:46:47;;;;;;;;;;;13.90;99.90;;;;;;4985686;28;19925;-43
2023/08/16 05:49:13;;;;;;;;;;;14.00;99.90;;;;;;4996640;28;19971;-43
2023/08/16 05:51:40;;;;;;;;;;;14.00;99.90;;;;;;5014552;28;19926;-43
2023/08/16 05:54:07;;;;;;;;;;;14.10;99.90;;;;;;4991576;28;19943;-43
2023/08/16 05:56:33;;;;;;;;;;;14.20;99.90;;;;;;4995682;28;20321;-42
2023/08/16 05:59:00;;;;;;;;;;;14.30;99.90;;;;;;5009962;28;19932;-43
2023/08/16 06:01:28;;;;;;;;;;;14.40;99.90;;;;;;5036820;28;20024;-43
2023/08/16 06:03:55;;;;;;;;;;;14.50;99.90;;;;;;5036191;28;19924;-43
2023/08/16 06:06:21;;;;;;;;;;;14.70;99.90;;;;;;5054016;28;19963;-43
2023/08/16 06:08:48;;;;;;;;;;;14.80;99.90;;;;;;5036707;28;19979;-43
2023/08/16 06:11:18;;;;;;;;;;;15.00;99.90;;;;;;5039449;28;19929;-43
2023/08/16 06:13:45;;;;;;;;;;;15.20;99.90;;;;;;5014940;28;19988;-43
2023/08/16 06:16:11;;;;;;;;;;;15.30;99.90;;;;;;4996897;28;19926;-43
2023/08/16 06:18:39;;;;;;;;;;;15.40;99.90;;;;;;5014198;28;19929;-42
2023/08/16 06:21:06;;;;;;;;;;;15.40;99.90;;;;;;5011933;28;19925;-43
2023/08/16 06:23:33;;;;;;;;;;;15.50;99.90;;;;;;5034063;28;19925;-43
2023/08/16 06:25:59;;;;;;;;;;;15.60;99.90;;;;;;5033820;28;20411;-43
2023/08/16 06:28:27;;;;;;;;;;;15.60;99.90;;;;;;5032977;28;19925;-43
2023/08/16 06:30:53;;;;;;;;;;;15.60;99.90;;;;;;5015088;28;19925;-43
2023/08/16 06:33:22;;;;;;;;;;;15.80;99.90;;;;;;5033701;28;19925;-43
2023/08/16 06:35:51;;;;;;;;;;;15.80;99.90;;;;;;5015907;28;19925;-42
2023/08/16 06:38:18;;;;;;;;;;;15.90;99.90;;;;;;5033665;28;20028;-43
2023/08/16 06:40:45;;;;;;;;;;;16.00;99.90;;;;;;5033818;28;19963;-43
2023/08/16 06:43:11;;;;;;;;;;;16.00;99.90;;;;;;5030102;28;19933;-43
2023/08/16 06:45:38;;;;;;;;;;;16.10;99.90;;;;;;5022114;28;19995;-43
2023/08/16 06:48:06;;;;;;;;;;;16.20;99.90;;;;;;5019097;28;19972;-43
2023/08/16 06:50:33;;;;;;;;;;;16.20;99.90;;;;;;5028926;28;19959;-44
2023/08/16 06:53:01;;;;;;;;;;;16.20;99.90;;;;;;5033137;28;20180;-42
2023/08/16 06:55:28;;;;;;;;;;;16.30;99.90;;;;;;5015320;28;19987;-43
2023/08/16 06:57:55;;;;;;;;;;;16.40;99.90;;;;;;5033143;28;19925;-43
2023/08/16 07:00:22;;;;;;;;;;;16.50;99.90;;;;;;5027661;28;19965;-42
2023/08/16 07:02:48;;;;;;;;;;;16.60;99.90;;;;;;5017218;28;19944;-43
2023/08/16 07:05:15;;;;;;;;;;;16.80;99.90;;;;;;5028526;28;19962;-43
2023/08/16 07:07:42;;;;;;;;;;;16.90;99.90;;;;;;5033129;28;19925;-43
2023/08/16 07:10:10;;;;;;;;;;;17.00;99.90;;;;;;5014014;28;19940;-43
2023/08/16 07:12:37;;;;;;;;;;;17.10;99.90;;;;;;5032531;28;19940;-42
2023/08/16 07:15:04;;;;;;;;;;;17.20;99.90;;;;;;5013358;28;20008;-42
2023/08/16 07:17:31;;;;;;;;;;;17.30;99.90;;;;;;5033054;28;20063;-43
2023/08/16 07:19:57;;;;;;;;;;;17.40;99.90;;;;;;5025597;28;19995;-43
2023/08/16 07:22:27;;;;;;;;;;;17.50;99.90;;;;;;5014894;28;19925;-43
2023/08/16 07:24:53;;;;;;;;;;;17.70;99.90;;;;;;5017105;28;19940;-43
2023/08/16 07:27:21;;;;;;;;;;;17.80;99.90;;;;;;5014027;28;19936;-43
2023/08/16 07:29:48;;;;;;;;;;;17.90;99.90;;;;;;5031557;28;19959;-43
2023/08/16 07:32:15;;;;;;;;;;;17.90;99.90;;;;;;5030151;28;19925;-43
2023/08/16 07:34:42;;;;;;;;;;;18.00;99.90;;;;;;5002310;28;19925;-43
2023/08/16 07:37:10;;;;;;;;;;;18.10;99.90;;;;;;5026246;28;20398;-43
2023/08/16 07:39:37;;;;;;;;;;;18.20;99.90;;;;;;5031040;28;19987;-42
2023/08/16 07:42:05;;;;;;;;;;;18.40;99.90;;;;;;5013627;28;20361;-42
2023/08/16 07:44:33;;;;;;;;;;;18.60;99.90;;;;;;5031831;28;20042;-43
2023/08/16 07:47:00;;;;;;;;;;;18.70;99.90;;;;;;5030196;28;20416;-42
2023/08/16 07:49:27;;;;;;;;;;;18.80;99.90;;;;;;5012378;28;19925;-44
2023/08/16 07:51:54;;;;;;;;;;;19.00;99.90;;;;;;5022975;28;20442;-44
2023/08/16 07:54:21;;;;;;;;;;;19.10;99.90;;;;;;5012721;28;20013;-43
2023/08/16 07:56:48;;;;;;;;;;;19.30;99.90;;;;;;5031579;28;19932;-43
2023/08/16 07:59:15;;;;;;;;;;;19.50;99.90;;;;;;5041180;28;19925;-43
2023/08/16 08:01:43;;;;;;;;;;;19.60;99.90;;;;;;5037276;28;19932;-43
2023/08/16 08:04:10;;;;;;;;;;;19.80;99.90;;;;;;5031699;28;20273;-43
2023/08/16 08:06:36;;;;;;;;;;;20.00;99.90;;;;;;5013866;28;19994;-43
2023/08/16 08:09:03;;;;;;;;;;;20.10;99.90;;;;;;5017946;28;19933;-43
2023/08/16 08:11:30;;;;;;;;;;;20.20;99.90;;;;;;5013765;28;19933;-43
2023/08/16 08:13:57;;;;;;;;;;;20.30;99.90;;;;;;5002645;28;19964;-43
2023/08/16 08:16:24;;;;;;;;;;;20.40;99.90;;;;;;5030638;28;20224;-43
2023/08/16 08:18:52;;;;;;;;;;;20.50;99.90;;;;;;5011024;28;19929;-43
2023/08/16 08:21:19;;;;;;;;;;;20.70;99.90;;;;;;5014147;28;19925;-43
2023/08/16 08:23:45;;;;;;;;;;;20.80;99.90;;;;;;5031727;28;19925;-43
2023/08/16 08:26:12;;;;;;;;;;;20.90;99.90;;;;;;5030369;28;19932;-43
2023/08/16 08:28:39;;;;;;;;;;;21.00;99.90;;;;;;5021689;28;19935;-43
2023/08/16 08:31:05;;;;;;;;;;;21.20;99.90;;;;;;5020846;28;20203;-43
2023/08/16 08:33:32;;;;;;;;;;;21.40;99.90;;;;;;5030625;28;20289;-43
2023/08/16 08:36:00;;;;;;;;;;;21.50;99.90;;;;;;5030215;28;19925;-43
2023/08/16 08:38:27;;;;;;;;;;;21.60;99.90;;;;;;5000567;28;19937;-43
2023/08/16 08:40:57;;;;;;;;;;;21.60;99.90;;;;;;5023735;28;19948;-43
2023/08/16 08:43:26;;;;;;;;;;;21.60;99.90;;;;;;5028905;28;19971;-44
2023/08/16 08:45:52;;;;;;;;;;;21.70;99.90;;;;;;4999549;28;19925;-43
2023/08/16 08:48:19;;;;;;;;;;;21.80;99.90;;;;;;5013575;28;19929;-43
2023/08/16 08:50:46;;;;;;;;;;;21.80;99.90;;;;;;5023953;28;19925;-43
2023/08/16 08:53:14;;;;;;;;;;;21.90;99.90;;;;;;5000319;28;20285;-43
2023/08/16 08:55:41;;;;;;;;;;;22.00;99.90;;;;;;5013746;28;19951;-43
2023/08/16 08:58:07;;;;;;;;;;;22.10;99.90;;;;;;5014206;28;19933;-43
2023/08/16 09:00:37;;;;;;;;;;;22.20;99.90;;;;;;5011418;28;19932;-43
2023/08/16 09:03:06;;;;;;;;;;;22.40;99.90;;;;;;5013523;28;20423;-43
2023/08/16 09:05:32;;;;;;;;;;;22.60;99.90;;;;;;5014614;28;20376;-43
2023/08/16 09:08:00;;;;;;;;;;;22.80;99.90;;;;;;5030293;28;19925;-43
2023/08/16 09:10:28;;;;;;;;;;;22.90;99.90;;;;;;5013200;28;19960;-43
2023/08/16 09:12:55;;;;;;;;;;;23.10;99.90;;;;;;5017163;28;19925;-43
2023/08/16 09:15:21;;;;;;;;;;;23.20;99.90;;;;;;5016989;28;19963;-43
2023/08/16 09:17:50;;;;;;;;;;;23.10;99.90;;;;;;5033455;28;19929;-43
2023/08/16 09:20:17;;;;;;;;;;;23.20;99.90;;;;;;5029298;28;19925;-43
2023/08/16 09:22:43;;;;;;;;;;;23.30;99.90;;;;;;5016476;28;20032;-43
2023/08/16 09:25:10;;;;;;;;;;;23.50;99.90;;;;;;4999896;28;19934;-43
2023/08/16 09:27:38;;;;;;;;;;;23.70;99.90;;;;;;5033844;28;19933;-43
2023/08/16 09:30:05;;;;;;;;;;;23.80;99.90;;;;;;5016921;28;19925;-43
2023/08/16 09:32:33;;;;;;;;;;;23.80;99.90;;;;;;5007246;28;20274;-43
2023/08/16 09:35:00;;;;;;;;;;;23.80;99.90;;;;;;5026867;28;20292;-43
2023/08/16 09:37:27;;;;;;;;;;;24.00;99.90;;;;;;5014670;28;20428;-43
2023/08/16 09:39:57;;;;;;;;;;;24.10;99.90;;;;;;5016818;28;20348;-43
2023/08/16 09:42:30;;;;;;;;;;;24.30;99.90;;;;;;5015123;28;20439;-43
2023/08/16 09:44:59;;;;;;;;;;;24.50;99.90;;;;;;5020526;28;19956;-43
2023/08/16 09:47:28;;;;;;;;;;;24.60;99.90;;;;;;5015562;28;20319;-44
2023/08/16 09:49:55;;;;;;;;;;;24.80;99.90;;;;;;5034259;28;19925;-44
2023/08/16 09:52:24;;;;;;;;;;;24.90;99.90;;;;;;5026102;28;19926;-44
2023/08/16 09:54:51;;;;;;;;;;;25.00;99.90;;;;;;5032592;28;19932;-43
2023/08/16 09:57:18;;;;;;;;;;;25.00;99.90;;;;;;5016682;28;19929;-43
2023/08/16 09:59:44;;;;;;;;;;;24.90;99.90;;;;;;5016478;28;19925;-44
2023/08/16 10:02:13;;;;;;;;;;;25.00;99.90;;;;;;5016538;28;20393;-43
2023/08/16 10:04:40;;;;;;;;;;;25.00;99.90;;;;;;5034306;28;19925;-43
2023/08/16 10:07:08;;;;;;;;;;;25.20;99.90;;;;;;5016748;28;19929;-43
2023/08/16 10:09:35;;;;;;;;;;;25.30;99.90;;;;;;5033844;28;19925;-43
2023/08/16 10:12:02;;;;;;;;;;;25.40;99.90;;;;;;5022961;28;19929;-43
2023/08/16 10:14:28;;;;;;;;;;;25.40;99.90;;;;;;5016772;28;19947;-43
2023/08/16 10:17:00;;;;;;;;;;;25.40;99.50;;;;;;5010516;28;19926;-43
2023/08/16 10:19:28;;;;;;;;;;;25.50;99.90;;;;;;5027041;28;20385;-44
2023/08/16 10:21:54;;;;;;;;;;;25.50;97.70;;;;;;5005396;28;20011;-43
2023/08/16 10:24:21;;;;;;;;;;;25.50;98.40;;;;;;4996215;28;20004;-43
2023/08/16 10:26:48;;;;;;;;;;;25.50;98.30;;;;;;5032396;28;19987;-42
2023/08/16 10:29:15;;;;;;;;;;;25.70;97.50;;;;;;5031684;28;20305;-43
2023/08/16 10:31:42;;;;;;;;;;;25.70;97.80;;;;;;5030892;28;19929;-44
2023/08/16 10:34:09;;;;;;;;;;;25.80;98.30;;;;;;5039190;28;20373;-43
2023/08/16 10:36:37;;;;;;;;;;;25.90;99.10;;;;;;5023731;28;19926;-43
2023/08/16 10:39:04;;;;;;;;;;;26.10;98.10;;;;;;5006216;28;19935;-43
2023/08/16 10:41:39;;;;;;;;;;;26.10;98.20;;;;;;5005801;28;20381;-44
2023/08/16 10:44:07;;;;;;;;;;;26.20;98.50;;;;;;5030553;28;19925;-43
2023/08/16 10:46:34;;;;;;;;;;;26.30;98.30;;;;;;5008694;28;19925;-43
2023/08/16 10:49:01;;;;;;;;;;;26.40;98.30;;;;;;5012270;28;19932;-43
2023/08/16 10:51:28;;;;;;;;;;;26.50;97.00;;;;;;5014941;28;19933;-43
2023/08/16 10:53:57;;;;;;;;;;;26.60;96.80;;;;;;5022628;28;19925;-43
2023/08/16 10:56:24;;;;;;;;;;;26.60;97.60;;;;;;5031824;28;19945;-43
2023/08/16 10:58:50;;;;;;;;;;;26.70;97.80;;;;;;5024890;28;19975;-43
2023/08/16 11:01:17;;;;;;;;;;;26.80;98.20;;;;;;5013726;28;19925;-44
2023/08/16 11:03:46;;;;;;;;;;;26.90;97.70;;;;;;5012511;28;19925;-43
2023/08/16 11:06:12;;;;;;;;;;;26.90;94.30;;;;;;5021878;28;20297;-43
2023/08/16 11:08:39;;;;;;;;;;;27.00;96.10;;;;;;5033196;28;20289;-43
2023/08/16 11:11:07;;;;;;;;;;;27.00;95.60;;;;;;5023804;28;19937;-43
2023/08/16 11:13:34;;;;;;;;;;;27.10;96.40;;;;;;4995832;28;19926;-44
2023/08/16 11:16:01;;;;;;;;;;;27.10;95.00;;;;;;5012871;28;19933;-43
2023/08/16 11:18:28;;;;;;;;;;;27.20;95.60;;;;;;5031448;28;20391;-43
2023/08/16 11:20:59;;;;;;;;;;;27.10;92.00;;;;;;5030831;28;19971;-43
2023/08/16 11:23:30;;;;;;;;;;;27.00;92.30;;;;;;5013593;28;19931;-43
2023/08/16 11:25:59;;;;;;;;;;;26.90;94.90;;;;;;5014995;28;20361;-43
2023/08/16 11:28:27;;;;;;;;;;;27.10;96.20;;;;;;5031934;28;20288;-43
2023/08/16 11:30:56;;;;;;;;;;;27.20;93.70;;;;;;5014206;28;19940;-44
2023/08/16 11:33:23;;;;;;;;;;;27.20;93.50;;;;;;5014144;28;19975;-43
2023/08/16 11:35:50;;;;;;;;;;;27.40;94.70;;;;;;5014682;28;20039;-43
2023/08/16 11:38:16;;;;;;;;;;;27.70;94.00;;;;;;5032375;28;19925;-43
2023/08/16 11:40:46;;;;;;;;;;;27.80;92.90;;;;;;5032702;28;19929;-43
2023/08/16 11:43:13;;;;;;;;;;;27.90;93.90;;;;;;5032789;28;19933;-43
2023/08/16 11:45:42;;;;;;;;;;;28.00;93.50;;;;;;5024207;28;19929;-43
2023/08/16 11:48:08;;;;;;;;;;;28.10;93.90;;;;;;5012726;28;19929;-43
2023/08/16 11:50:35;;;;;;;;;;;28.30;91.60;;;;;;4999524;28;19926;-43
2023/08/16 11:53:02;;;;;;;;;;;28.20;93.10;;;;;;5015064;28;19971;-43
2023/08/16 11:55:29;;;;;;;;;;;28.30;93.40;;;;;;5032299;28;19925;-43
2023/08/16 11:58:01;;;;;;;;;;;28.50;92.10;;;;;;5018234;28;19926;-43
2023/08/16 12:00:29;;;;;;;;;;;28.50;90.50;;;;;;4998977;28;19925;-43
2023/08/16 12:02:57;;;;;;;;;;;28.50;91.50;;;;;;5020389;28;19925;-44
2023/08/16 12:05:25;;;;;;;;;;;28.50;90.30;;;;;;5012494;28;19957;-44
2023/08/16 12:07:52;;;;;;;;;;;28.70;92.00;;;;;;5016871;28;19933;-43
2023/08/16 12:10:23;;;;;;;;;;;28.70;90.90;;;;;;5014900;28;20298;-44
2023/08/16 12:12:52;;;;;;;;;;;28.90;90.60;;;;;;5012482;28;19926;-44
2023/08/16 12:15:19;;;;;;;;;;;28.90;89.20;;;;;;5012593;28;20377;-44
2023/08/16 12:17:46;;;;;;;;;;;28.80;90.80;;;;;;5008912;28;20282;-43
2023/08/16 12:20:14;;;;;;;;;;;28.90;91.40;;;;;;5030896;28;19979;-44
2023/08/16 12:22:41;;;;;;;;;;;28.90;89.30;;;;;;5013761;28;19926;-43
2023/08/16 12:25:08;;;;;;;;;;;28.60;89.90;;;;;;5029598;28;19972;-44
2023/08/16 12:27:35;;;;;;;;;;;28.40;90.70;;;;;;5030834;28;21583;-44
2023/08/16 12:30:02;;;;;;;;;;;28.20;91.00;;;;;;5024012;28;20279;-44
2023/08/16 12:32:29;;;;;;;;;;;28.10;90.70;;;;;;5029672;28;19925;-44
2023/08/16 12:34:58;;;;;;;;;;;28.00;91.70;;;;;;5031305;28;20377;-43
2023/08/16 12:37:26;;;;;;;;;;;27.90;90.90;;;;;;5009735;28;19940;-43
2023/08/16 12:39:53;;;;;;;;;;;27.60;90.80;;;;;;5030442;28;19929;-44
2023/08/16 12:42:20;;;;;;;;;;;27.60;91.70;;;;;;5017852;28;19997;-44
2023/08/16 12:44:46;;;;;;;;;;;27.80;91.60;;;;;;5018263;28;19948;-43
2023/08/16 12:47:13;;;;;;;;;;;28.10;92.40;;;;;;5035288;28;19925;-43
2023/08/16 12:49:40;;;;;;;;;;;28.40;92.30;;;;;;5017339;28;20455;-43
2023/08/16 12:52:06;;;;;;;;;;;28.60;91.80;;;;;;5001025;28;20596;-44
2023/08/16 12:54:34;;;;;;;;;;;28.70;91.80;;;;;;5034370;28;19925;-44
2023/08/16 12:57:01;;;;;;;;;;;28.80;91.40;;;;;;5034691;28;19987;-43
2023/08/16 12:59:28;;;;;;;;;;;28.90;90.80;;;;;;5019538;28;19954;-43
2023/08/16 13:01:54;;;;;;;;;;;28.90;91.10;;;;;;5029851;28;20400;-43
2023/08/16 13:04:21;;;;;;;;;;;29.10;91.30;;;;;;5017843;28;19925;-44
2023/08/16 13:06:48;;;;;;;;;;;29.20;91.30;;;;;;5035792;28;19925;-43
2023/08/16 13:09:16;;;;;;;;;;;29.20;89.60;;;;;;5035573;28;19936;-44
2023/08/16 13:11:45;;;;;;;;;;;29.10;87.00;;;;;;5034479;28;19964;-44
2023/08/16 13:14:12;;;;;;;;;;;29.10;88.80;;;;;;5034544;28;19925;-44
2023/08/16 13:16:39;;;;;;;;;;;29.10;90.10;;;;;;5016199;28;19929;-44
2023/08/16 13:19:06;;;;;;;;;;;29.20;88.20;;;;;;5034823;28;19972;-44
2023/08/16 13:21:33;;;;;;;;;;;29.20;89.30;;;;;;5002444;28;19929;-44
2023/08/16 13:24:07;;;;;;;;;;;29.30;87.60;;;;;;5015298;28;20016;-44
2023/08/16 13:26:33;;;;;;;;;;;29.20;83.00;;;;;;5015100;28;19933;-44
2023/08/16 13:29:01;;;;;;;;;;;29.00;88.30;;;;;;5015091;28;19925;-44
2023/08/16 13:31:28;;;;;;;;;;;28.90;85.10;;;;;;5015983;28;19926;-43
2023/08/16 13:33:55;;;;;;;;;;;28.90;86.10;;;;;;5010594;28;19929;-44
2023/08/16 13:36:22;;;;;;;;;;;28.90;85.00;;;;;;5034185;28;19925;-44
2023/08/16 13:38:49;;;;;;;;;;;28.90;84.90;;;;;;5034804;28;19925;-43
2023/08/16 13:41:15;;;;;;;;;;;28.80;85.10;;;;;;5017330;28;20369;-44
2023/08/16 13:43:42;;;;;;;;;;;28.60;82.50;;;;;;5031615;28;20344;-44
2023/08/16 13:46:10;;;;;;;;;;;28.30;84.70;;;;;;5027627;28;19929;-44
2023/08/16 13:48:36;;;;;;;;;;;28.10;85.30;;;;;;5034238;28;20482;-44
2023/08/16 13:51:03;;;;;;;;;;;28.10;87.50;;;;;;5022493;28;20373;-44
2023/08/16 13:53:30;;;;;;;;;;;28.20;86.10;;;;;;4997135;28;19972;-43
2023/08/16 13:56:00;;;;;;;;;;;28.30;84.40;;;;;;5019629;28;19929;-44
2023/08/16 13:58:27;;;;;;;;;;;28.30;86.90;;;;;;5016583;28;19932;-44
2023/08/16 14:00:54;;;;;;;;;;;28.40;87.20;;;;;;5028884;28;19982;-44
2023/08/16 14:03:22;;;;;;;;;;;28.30;84.90;;;;;;5009531;28;19929;-43
2023/08/16 14:05:54;;;;;;;;;;;28.30;88.10;;;;;;5026934;28;19925;-44
2023/08/16 14:08:20;;;;;;;;;;;28.30;86.60;;;;;;5013076;28;19970;-43
2023/08/16 14:10:50;;;;;;;;;;;28.30;82.80;;;;;;5034190;28;19963;-43
2023/08/16 14:13:17;;;;;;;;;;;28.30;85.10;;;;;;5013631;28;19931;-43
2023/08/16 14:15:43;;;;;;;;;;;28.30;84.70;;;;;;5029359;28;19929;-43